Sparta, NC

9:02 AM EST on February 13, 2016 (GMT -0500)
stone ridge | | Change Station
CLOSE
Current Station
Personal Weather Station
Location: Sparta, NC
Elevation: 3009 ft
Nearby Weather Stations
Active Advisory: Wind Chill Advisory

Elev 3009 ft 36.50 °N, 81.14 °W | Updated 9 seconds ago

Mostly Cloudy
Mostly Cloudy
12.0 °F
Feels Like 0 °F
N
8.5
Wind Variable Wind from NW
Gusts 28.0 mph

Today
High -- | Low -- °F
--% Chance of Precip.
Yesterday
High -- | Low -- °F
Precip. -- in
Pressure 30.06 in
Visibility 10.0 miles
Clouds Mostly Cloudy 1900 ft
Mostly Cloudy 2400 ft
Windchill 0 °F
Dew Point 4 °F
Humidity 68%
Rainfall 0.00 in
Snow Depth Not available.
7:15 AM 6:02 PM
Waxing Crescent, 31% visible
METAR KGEV 131355Z AUTO 31017G36KT 280V340 10SM BKN019 BKN024 M11/M18 A3006 RMK AO2 T11081182
Pressure 30.06 in
Visibility 10.0 miles
Clouds Mostly Cloudy 1900 ft
Mostly Cloudy 2400 ft
Windchill 0 °F
Dew Point 4 °F
Humidity 68%
Rainfall 0.00 in
Snow Depth Not available.
7:15 AM 6:02 PM
Waxing Crescent, 31% visible
METAR KGEV 131355Z AUTO 31017G36KT 280V340 10SM BKN019 BKN024 M11/M18 A3006 RMK AO2 T11081182

10-Day Weather Forecast

Almanac

Astronomy

Feb. 13, 2016 Rise Set
Actual Time
Civil Twilight
Nautical Twilight
Astronomical Twilight
Moon
Length of Visible Light
Length of Day
Tomorrow will be .
, % of the Moon is Illuminated

Today's Extremes

State Highs State Lows

Community

WunderPhotos

Upload Photos

1,892,556 photos uploaded!

WunderBlog® & News

Nearby

Air Quality

  Air Quality AQ Index Pollutant
Not available.

Snow Depth

Station Depth Elevation

Earthquake Activity

City Distance Mag. Time & Date
Minimum magnitude displayed is 2.5.

Coastal Water Temperatures

Place Temperature

Stations

Nearby Weather Stations

Station Location Temp. Windchill Dew Point Humidity Wind Precip. Elev Updated Type
                   

Watches & Warnings

Wind Chill Advisory
Issued: 7:06 AM EST Feb. 13, 2016 – National Weather Service

... Wind Chill Advisory remains in effect until 10 am EST Sunday...

* locations... areas of Virginia... West Virginia... and North
Carolina from the Blue Ridge westward.

* Hazard types... strong gusty winds... and very low wind chills.

* Wind chill readings... as low as 10 below.

* Timing... through Sunday morning.

* Impacts... very low wind chill values will lead to hypothermia
and frostbite if not properly protected from the cold.

* Winds... northwest 10 to 20 mph with gusts up to 40 mph.

* Temperatures... 4 to 22 above.

Precautionary/preparedness actions...

A Wind Chill Advisory means that very cold air and strong winds
will combine to generate low wind chills. This will result in
frost bite and lead to hypothermia if precautions are not taken.
If you must venture outdoors... make sure you wear a hat and
gloves.



Rab